createdAt,value
2017-09-30T00:00:34.285Z,37.13
2017-09-30T00:03:00.751Z,38.67
2017-09-30T00:05:27.170Z,40.43
2017-09-30T00:07:53.765Z,37.93
2017-09-30T00:10:20.254Z,39.77
2017-09-30T00:12:46.683Z,38.53
2017-09-30T00:15:13.128Z,41.93
2017-09-30T00:17:39.739Z,44.07
2017-09-30T00:20:06.281Z,40.70
2017-09-30T00:22:32.712Z,41.03
2017-09-30T00:24:59.139Z,39.70
2017-09-30T00:27:25.602Z,40.00
2017-09-30T00:29:52.089Z,37.30
2017-09-30T00:32:19.267Z,43.47
2017-09-30T00:34:45.694Z,38.00
2017-09-30T00:37:12.168Z,40.30
2017-09-30T00:39:38.660Z,38.33
2017-09-30T00:42:05.075Z,38.10
2017-09-30T00:44:32.337Z,39.60
2017-09-30T00:46:58.763Z,38.43
2017-09-30T00:49:25.275Z,42.83
2017-09-30T00:51:52.446Z,37.13
2017-09-30T00:54:18.877Z,48.60
2017-09-30T00:56:45.351Z,52.30
2017-09-30T00:59:11.774Z,49.90
2017-09-30T01:01:38.296Z,47.63
2017-09-30T01:04:04.731Z,56.73
2017-09-30T01:06:31.161Z,47.63
2017-09-30T01:08:57.828Z,46.70
2017-09-30T01:11:24.244Z,57.20
2017-09-30T01:13:50.695Z,52.43
2017-09-30T01:16:17.104Z,61.80
2017-09-30T01:18:43.666Z,60.43
2017-09-30T01:21:10.088Z,50.77
2017-09-30T01:23:36.518Z,47.10
2017-09-30T01:26:02.987Z,48.93
2017-09-30T01:28:30.174Z,46.77
2017-09-30T01:30:56.614Z,50.17
2017-09-30T01:33:23.055Z,46.03
2017-09-30T01:35:49.491Z,45.87
2017-09-30T01:38:15.920Z,54.70
2017-09-30T01:40:42.365Z,50.57
2017-09-30T01:43:08.792Z,53.73
2017-09-30T01:45:35.246Z,49.47
2017-09-30T01:48:01.699Z,59.87
2017-09-30T01:50:28.907Z,51.23
2017-09-30T01:52:55.343Z,53.70
2017-09-30T01:55:21.795Z,53.67
2017-09-30T01:57:48.243Z,64.63
2017-09-30T02:00:14.664Z,65.20
2017-09-30T02:02:41.118Z,52.20
2017-09-30T02:05:08.337Z,55.97
2017-09-30T02:07:34.772Z,45.30
2017-09-30T02:10:01.218Z,46.57
2017-09-30T02:12:27.705Z,43.67
2017-09-30T02:14:54.168Z,57.87
2017-09-30T02:17:20.599Z,53.17
2017-09-30T02:19:47.044Z,57.57
2017-09-30T02:22:13.491Z,59.83
2017-09-30T02:24:39.935Z,63.53
2017-09-30T02:27:07.135Z,61.80
2017-09-30T02:29:33.552Z,47.97
2017-09-30T02:31:59.996Z,39.70
2017-09-30T02:34:26.419Z,63.13
2017-09-30T02:36:52.845Z,81.67
2017-09-30T02:39:19.295Z,64.63
2017-09-30T02:41:45.723Z,89.37
2017-09-30T02:44:12.191Z,85.27
2017-09-30T02:46:38.688Z,57.70
2017-09-30T02:49:05.158Z,79.40
2017-09-30T02:51:31.617Z,57.87
2017-09-30T02:53:58.783Z,62.53
2017-09-30T02:56:25.227Z,82.80
2017-09-30T02:58:51.638Z,75.17
2017-09-30T03:01:18.871Z,70.10
2017-09-30T03:03:45.377Z,79.20
2017-09-30T03:06:11.827Z,69.97
2017-09-30T03:08:38.281Z,75.07
2017-09-30T03:11:05.507Z,56.03
2017-09-30T03:13:31.923Z,76.70
2017-09-30T03:15:58.334Z,53.83
2017-09-30T03:18:24.786Z,62.10
2017-09-30T03:20:51.249Z,60.23
2017-09-30T03:23:17.732Z,72.50
2017-09-30T03:25:44.352Z,70.77
2017-09-30T03:28:10.734Z,55.60
2017-09-30T03:30:37.167Z,72.40
2017-09-30T03:33:03.649Z,65.67
2017-09-30T03:35:30.104Z,77.80
2017-09-30T03:37:56.559Z,68.00
2017-09-30T03:40:23.079Z,59.57
2017-09-30T03:42:49.535Z,61.43
2017-09-30T03:45:16.092Z,63.90
2017-09-30T03:47:43.293Z,55.20
2017-09-30T03:50:09.918Z,57.77
2017-09-30T03:52:36.359Z,57.50
2017-09-30T03:55:02.810Z,58.73
2017-09-30T03:57:29.420Z,71.27
2017-09-30T03:59:55.966Z,76.93
2017-09-30T04:02:22.402Z,66.90
2017-09-30T04:04:48.887Z,72.07
2017-09-30T04:07:16.249Z,74.97
2017-09-30T04:09:43.442Z,63.70
2017-09-30T04:12:09.899Z,53.23
2017-09-30T04:14:36.304Z,52.10
2017-09-30T04:17:02.755Z,49.93
2017-09-30T04:19:29.150Z,53.57
2017-09-30T04:21:55.654Z,67.27
2017-09-30T04:24:22.831Z,58.40
2017-09-30T04:26:49.375Z,54.00
2017-09-30T04:29:15.793Z,50.17
2017-09-30T04:31:43.066Z,49.30
2017-09-30T04:34:09.744Z,48.00
2017-09-30T04:36:36.347Z,44.67
2017-09-30T04:39:02.798Z,45.83
2017-09-30T04:41:29.226Z,44.07
2017-09-30T04:43:55.863Z,37.87
2017-09-30T04:46:22.278Z,49.70
2017-09-30T04:48:48.719Z,58.20
2017-09-30T04:51:15.214Z,64.67
2017-09-30T04:53:42.906Z,52.40
2017-09-30T04:56:09.433Z,49.50
2017-09-30T04:58:36.196Z,47.33
2017-09-30T05:01:02.986Z,64.17
2017-09-30T05:03:29.870Z,49.63
2017-09-30T05:05:56.674Z,51.97
2017-09-30T05:08:24.249Z,39.63
2017-09-30T05:10:51.070Z,44.30
2017-09-30T05:13:18.331Z,46.60
2017-09-30T05:15:45.737Z,45.30
2017-09-30T05:18:12.380Z,47.20
2017-09-30T05:20:38.822Z,54.37
2017-09-30T05:23:05.254Z,44.73
2017-09-30T05:25:31.718Z,41.47
2017-09-30T05:27:58.885Z,54.80
2017-09-30T05:30:25.329Z,64.97
2017-09-30T05:32:51.764Z,61.83
2017-09-30T05:35:18.215Z,46.27
2017-09-30T05:37:44.676Z,45.87
2017-09-30T05:40:11.095Z,54.97
2017-09-30T05:42:37.612Z,48.10
2017-09-30T05:45:04.043Z,50.90
2017-09-30T05:47:30.557Z,49.97
2017-09-30T05:49:57.002Z,48.67
2017-09-30T05:52:23.442Z,45.10
2017-09-30T05:54:49.864Z,42.10
2017-09-30T05:57:16.326Z,39.40
2017-09-30T05:59:42.750Z,44.53
2017-09-30T06:02:09.192Z,37.27
2017-09-30T06:04:35.644Z,42.67
2017-09-30T06:07:02.150Z,41.93
2017-09-30T06:09:28.600Z,39.40
2017-09-30T06:11:55.054Z,33.80
2017-09-30T06:14:22.247Z,33.23
2017-09-30T06:16:48.687Z,33.57
2017-09-30T06:19:15.193Z,34.03
2017-09-30T06:21:42.379Z,31.17
2017-09-30T06:24:08.798Z,31.07
2017-09-30T06:26:35.266Z,30.67
2017-09-30T06:29:01.714Z,31.17
2017-09-30T06:31:28.915Z,30.93
2017-09-30T06:33:55.371Z,34.43
2017-09-30T06:36:21.819Z,33.10
2017-09-30T06:38:48.267Z,36.13
2017-09-30T06:41:15.462Z,33.80
2017-09-30T06:43:41.916Z,26.27
2017-09-30T06:46:08.351Z,30.23
2017-09-30T06:48:34.767Z,24.50
2017-09-30T06:51:01.251Z,27.90
2017-09-30T06:53:27.703Z,30.07
2017-09-30T06:55:54.898Z,31.97
2017-09-30T06:58:21.309Z,32.40
2017-09-30T07:00:47.759Z,26.90
2017-09-30T07:03:14.331Z,26.53
2017-09-30T07:05:42.271Z,26.30
2017-09-30T07:08:09.654Z,22.90
2017-09-30T07:10:37.560Z,23.30
2017-09-30T07:13:04.148Z,23.73
2017-09-30T07:15:30.591Z,25.90
2017-09-30T07:17:57.027Z,25.30
2017-09-30T07:20:23.450Z,25.73
2017-09-30T07:22:49.891Z,25.73
2017-09-30T07:25:17.079Z,24.73
2017-09-30T07:30:32.230Z,23.77
2017-09-30T07:32:58.639Z,21.97
2017-09-30T07:35:25.118Z,22.43
2017-09-30T07:37:52.308Z,24.10
2017-09-30T07:40:18.764Z,25.40
2017-09-30T07:42:45.247Z,22.63
2017-09-30T07:45:11.716Z,23.07
2017-09-30T07:47:38.178Z,23.00
2017-09-30T07:50:04.659Z,24.20
2017-09-30T07:52:31.129Z,23.27
2017-09-30T07:54:57.572Z,24.57
2017-09-30T07:57:25.527Z,23.43
2017-09-30T07:59:51.951Z,24.97
2017-09-30T08:02:18.402Z,24.80
2017-09-30T08:04:45.604Z,23.50
2017-09-30T08:07:12.079Z,24.20
2017-09-30T08:09:38.631Z,23.23
2017-09-30T08:12:05.165Z,24.10
2017-09-30T08:14:31.626Z,23.73
2017-09-30T08:16:58.169Z,25.00
2017-09-30T08:19:24.635Z,24.90
2017-09-30T08:21:51.089Z,24.67
2017-09-30T08:24:17.605Z,23.47
2017-09-30T08:26:44.027Z,22.87
2017-09-30T08:29:10.455Z,23.20
2017-09-30T08:31:36.920Z,24.90
2017-09-30T08:34:03.384Z,21.60
2017-09-30T08:36:30.556Z,22.37
2017-09-30T08:38:57.054Z,22.30
2017-09-30T08:41:23.506Z,23.57
2017-09-30T08:43:50.743Z,22.50
2017-09-30T08:46:17.927Z,22.63
2017-09-30T08:51:33.323Z,21.00
2017-09-30T08:53:59.891Z,22.80
2017-09-30T08:56:26.550Z,20.07
2017-09-30T08:58:52.993Z,20.87
2017-09-30T09:01:20.211Z,20.37
2017-09-30T09:03:46.655Z,22.43
2017-09-30T09:06:13.126Z,21.00
2017-09-30T09:08:40.302Z,21.77
2017-09-30T09:11:06.792Z,21.60
2017-09-30T09:13:33.990Z,23.00
2017-09-30T09:16:04.196Z,21.80
2017-09-30T09:18:30.699Z,21.23
2017-09-30T09:20:57.963Z,20.30
2017-09-30T09:23:25.164Z,20.10
2017-09-30T09:25:51.630Z,21.63
2017-09-30T09:28:18.207Z,21.67
2017-09-30T09:30:44.639Z,20.30
2017-09-30T09:33:11.069Z,23.37
2017-09-30T09:35:37.562Z,24.30
2017-09-30T09:38:04.011Z,22.50
2017-09-30T09:40:31.207Z,23.30
2017-09-30T09:42:57.699Z,23.93
2017-09-30T09:45:24.871Z,23.80
2017-09-30T09:47:51.322Z,27.13
2017-09-30T09:50:17.783Z,23.43
2017-09-30T09:52:44.226Z,23.67
2017-09-30T09:55:10.666Z,24.83
2017-09-30T09:57:37.954Z,23.17
2017-09-30T10:00:04.421Z,22.23
2017-09-30T10:02:30.859Z,21.87
2017-09-30T10:04:57.319Z,21.03
2017-09-30T10:07:23.751Z,20.30
2017-09-30T10:09:50.955Z,19.60
2017-09-30T10:12:17.400Z,20.63
2017-09-30T10:14:43.949Z,19.67
2017-09-30T10:17:10.427Z,18.93
2017-09-30T10:19:36.855Z,20.77
2017-09-30T10:22:04.039Z,17.73
2017-09-30T10:24:30.511Z,17.53
2017-09-30T10:26:56.970Z,15.50
2017-09-30T10:29:24.185Z,12.80
2017-09-30T10:31:50.638Z,14.20
2017-09-30T10:34:17.857Z,12.57
2017-09-30T10:36:44.274Z,14.13
2017-09-30T10:39:10.726Z,15.07
2017-09-30T10:41:37.188Z,13.30
2017-09-30T10:44:04.459Z,13.07
2017-09-30T10:46:30.874Z,14.83
2017-09-30T10:48:58.107Z,14.33
2017-09-30T10:51:24.697Z,12.97
2017-09-30T10:53:51.124Z,13.47
2017-09-30T10:56:17.866Z,16.27
2017-09-30T10:58:44.306Z,12.97
2017-09-30T11:01:10.743Z,13.67
2017-09-30T11:03:37.270Z,13.37
2017-09-30T11:06:03.771Z,12.07
2017-09-30T11:08:30.981Z,10.93
2017-09-30T11:10:57.487Z,9.07
2017-09-30T11:13:24.052Z,10.27
2017-09-30T11:15:50.539Z,7.70
2017-09-30T11:18:17.009Z,9.37
2017-09-30T11:20:43.478Z,7.97
2017-09-30T11:23:09.953Z,7.97
2017-09-30T11:25:36.467Z,7.30
2017-09-30T11:28:03.756Z,8.30
2017-09-30T11:30:30.242Z,7.67
2017-09-30T11:32:57.455Z,7.30
2017-09-30T11:35:23.884Z,7.33
2017-09-30T11:37:50.436Z,7.17
2017-09-30T11:40:16.901Z,7.87
2017-09-30T11:42:44.338Z,7.40
2017-09-30T11:45:10.790Z,7.77
2017-09-30T11:47:38.540Z,10.10
2017-09-30T11:50:05.040Z,7.80
2017-09-30T11:53:44.442Z,8.30
2017-09-30T11:56:10.908Z,7.67
2017-09-30T11:58:37.355Z,7.63
2017-09-30T12:01:03.865Z,8.23
2017-09-30T12:03:30.363Z,7.47
2017-09-30T12:05:57.656Z,9.43
2017-09-30T12:08:24.094Z,12.63
2017-09-30T12:10:50.549Z,9.50
2017-09-30T12:13:17.000Z,9.60
2017-09-30T12:15:43.442Z,15.60
2017-09-30T12:18:10.651Z,8.93
2017-09-30T12:20:37.101Z,8.10
2017-09-30T12:23:03.577Z,8.60
2017-09-30T12:25:30.926Z,8.50
2017-09-30T12:27:58.179Z,8.83
2017-09-30T12:30:25.453Z,7.90
2017-09-30T12:32:51.878Z,8.70
2017-09-30T12:35:18.328Z,7.17
2017-09-30T12:37:44.726Z,7.60
2017-09-30T12:40:11.941Z,7.70
2017-09-30T12:42:38.390Z,8.60
2017-09-30T12:45:04.860Z,9.17
2017-09-30T12:47:31.408Z,8.40
2017-09-30T12:49:57.880Z,7.37
2017-09-30T12:52:24.323Z,6.40
2017-09-30T12:54:50.804Z,6.73
2017-09-30T12:57:18.446Z,6.47
2017-09-30T12:59:44.882Z,7.80
2017-09-30T13:02:12.135Z,6.90
2017-09-30T13:04:38.555Z,7.40
2017-09-30T13:07:05.735Z,7.40
2017-09-30T13:09:32.282Z,6.80
2017-09-30T13:11:58.736Z,7.00
2017-09-30T13:14:25.187Z,6.37
2017-09-30T13:16:51.658Z,7.30
2017-09-30T13:19:18.147Z,7.87
2017-09-30T13:21:44.591Z,7.10
2017-09-30T13:24:11.062Z,6.63
2017-09-30T13:26:37.533Z,7.00
2017-09-30T13:29:04.006Z,7.67
2017-09-30T13:31:31.212Z,7.47
2017-09-30T13:33:57.722Z,7.47
2017-09-30T13:36:24.229Z,7.90
2017-09-30T13:38:51.649Z,7.23
2017-09-30T13:41:18.255Z,10.20
2017-09-30T13:43:45.396Z,7.13
2017-09-30T13:46:11.854Z,9.37
2017-09-30T13:48:38.362Z,8.60
2017-09-30T13:51:04.867Z,7.93
2017-09-30T13:53:32.100Z,9.87
2017-09-30T13:55:58.536Z,8.63
2017-09-30T13:58:25.016Z,8.63
2017-09-30T14:00:51.443Z,8.17
2017-09-30T14:03:17.920Z,8.50
2017-09-30T14:05:44.506Z,7.87
2017-09-30T14:08:10.970Z,8.40
2017-09-30T14:10:37.490Z,8.53
2017-09-30T14:13:04.003Z,8.37
2017-09-30T14:15:30.536Z,9.40
2017-09-30T14:17:57.031Z,8.33
2017-09-30T14:20:23.590Z,7.90
2017-09-30T14:22:50.831Z,8.47
2017-09-30T14:25:17.278Z,8.67
2017-09-30T14:27:44.438Z,8.83
2017-09-30T14:30:10.921Z,8.53
2017-09-30T14:32:37.371Z,8.40
2017-09-30T14:35:03.881Z,7.20
2017-09-30T14:37:30.301Z,8.70
2017-09-30T14:39:56.755Z,7.57
2017-09-30T14:42:23.269Z,8.30
2017-09-30T14:44:49.788Z,9.57
2017-09-30T14:47:16.491Z,9.67
2017-09-30T14:49:43.724Z,7.57
2017-09-30T14:52:10.230Z,10.53
2017-09-30T14:54:36.650Z,10.90
2017-09-30T14:57:03.128Z,10.73
2017-09-30T14:59:29.635Z,10.03
2017-09-30T15:01:56.048Z,9.40
2017-09-30T15:04:22.519Z,10.30
2017-09-30T15:06:48.950Z,10.00
2017-09-30T15:09:15.427Z,9.77
2017-09-30T15:11:42.683Z,10.77
2017-09-30T15:14:09.200Z,9.87
2017-09-30T15:16:36.419Z,9.60
2017-09-30T15:19:02.877Z,11.57
2017-09-30T15:21:29.383Z,9.03
2017-09-30T15:23:55.882Z,12.10
2017-09-30T15:26:23.108Z,10.10
2017-09-30T15:31:39.051Z,11.23
2017-09-30T15:34:05.534Z,8.90
2017-09-30T15:36:32.055Z,11.17
2017-09-30T15:38:58.543Z,11.00
2017-09-30T15:41:28.182Z,11.47
2017-09-30T15:43:54.678Z,10.50
2017-09-30T15:46:21.208Z,10.83
2017-09-30T15:48:47.670Z,11.47
2017-09-30T15:51:14.247Z,10.83
2017-09-30T15:53:42.292Z,11.60
2017-09-30T15:56:08.802Z,12.10
2017-09-30T15:58:35.365Z,13.70
2017-09-30T16:01:02.018Z,13.13
2017-09-30T16:03:29.016Z,13.20
2017-09-30T16:05:55.479Z,12.57
2017-09-30T16:08:21.983Z,12.93
2017-09-30T16:10:48.453Z,13.50
2017-09-30T16:13:14.947Z,12.83
2017-09-30T16:15:41.656Z,14.23
2017-09-30T16:18:08.863Z,13.97
2017-09-30T16:20:35.330Z,11.73
2017-09-30T16:23:01.838Z,12.57
2017-09-30T16:25:28.368Z,14.00
2017-09-30T16:27:54.784Z,11.10
2017-09-30T16:30:21.225Z,15.80
2017-09-30T16:32:47.848Z,8.87
2017-09-30T16:35:14.337Z,11.20
2017-09-30T16:37:40.828Z,14.80
2017-09-30T16:40:07.331Z,11.50
2017-09-30T16:42:33.771Z,7.97
2017-09-30T16:45:00.959Z,13.50
2017-09-30T16:47:27.462Z,18.00
2017-09-30T16:49:53.970Z,11.10
2017-09-30T16:52:21.140Z,20.40
2017-09-30T16:54:47.556Z,11.67
2017-09-30T16:57:14.779Z,20.00
2017-09-30T16:59:42.723Z,21.80
2017-09-30T17:02:09.130Z,23.23
2017-09-30T17:04:35.580Z,20.17
2017-09-30T17:07:02.021Z,24.40
2017-09-30T17:09:28.513Z,28.63
2017-09-30T17:11:54.986Z,31.93
2017-09-30T17:14:21.452Z,24.50
2017-09-30T17:16:49.436Z,24.67
2017-09-30T17:19:16.594Z,25.73
2017-09-30T17:21:43.794Z,24.60
2017-09-30T17:24:10.227Z,24.57
2017-09-30T17:26:36.729Z,22.57
2017-09-30T17:29:03.314Z,15.57
2017-09-30T17:31:30.679Z,19.03
2017-09-30T17:33:57.179Z,21.43
2017-09-30T17:36:23.735Z,19.13
2017-09-30T17:38:50.257Z,16.70
2017-09-30T17:41:16.690Z,10.90
2017-09-30T17:43:43.224Z,10.23
2017-09-30T17:46:09.893Z,11.13
2017-09-30T17:48:36.623Z,7.50
2017-09-30T17:51:03.150Z,9.03
2017-09-30T17:53:29.564Z,10.83
2017-09-30T17:55:56.271Z,11.70
2017-09-30T17:58:22.739Z,9.67
2017-09-30T18:00:49.343Z,10.90
2017-09-30T18:03:15.843Z,7.50
2017-09-30T18:05:43.048Z,11.97
2017-09-30T18:08:09.526Z,8.27
2017-09-30T18:10:36.737Z,8.50
2017-09-30T18:15:53.782Z,9.90
2017-09-30T18:18:35.220Z,8.03
2017-09-30T18:21:01.736Z,9.33
2017-09-30T18:23:29.002Z,9.10
2017-09-30T18:25:55.456Z,10.03
2017-09-30T18:28:21.939Z,7.30
2017-09-30T18:30:48.523Z,8.53
2017-09-30T18:33:14.964Z,6.90
2017-09-30T18:35:41.460Z,8.23
2017-09-30T18:38:08.714Z,6.40
2017-09-30T18:40:35.917Z,3.43
2017-09-30T18:43:02.464Z,5.43
2017-09-30T18:45:28.943Z,5.47
2017-09-30T18:47:55.472Z,2.60
2017-09-30T18:50:22.848Z,2.97
2017-09-30T18:52:49.327Z,3.43
2017-09-30T18:55:15.813Z,3.27
2017-09-30T18:57:42.302Z,3.77
2017-09-30T19:00:08.928Z,3.87
2017-09-30T19:02:35.363Z,19.87
2017-09-30T19:05:01.967Z,8.00
2017-09-30T19:07:28.496Z,5.70
2017-09-30T19:09:54.981Z,6.90
2017-09-30T19:12:21.502Z,13.10
2017-09-30T19:14:48.163Z,6.53
2017-09-30T19:17:15.486Z,5.40
2017-09-30T19:19:41.957Z,6.67
2017-09-30T19:22:09.146Z,7.00
2017-09-30T19:24:35.631Z,8.20
2017-09-30T19:27:02.880Z,9.57
2017-09-30T19:29:30.353Z,9.63
2017-09-30T19:31:56.865Z,9.67
2017-09-30T19:34:23.395Z,9.10
2017-09-30T19:36:49.874Z,10.03
2017-09-30T19:39:16.316Z,10.30
2017-09-30T19:41:42.960Z,11.07
2017-09-30T19:44:09.382Z,10.63
2017-09-30T19:46:35.856Z,8.67
2017-09-30T19:49:02.360Z,10.00
2017-09-30T19:51:28.831Z,12.67
2017-09-30T19:53:55.295Z,11.63
2017-09-30T19:56:22.698Z,10.50
2017-09-30T19:58:49.231Z,11.40
2017-09-30T20:01:15.770Z,11.60
2017-09-30T20:03:42.343Z,8.57
2017-09-30T20:06:09.558Z,11.30
2017-09-30T20:08:36.137Z,13.87
2017-09-30T20:11:03.376Z,12.60
2017-09-30T20:13:30.557Z,8.27
2017-09-30T20:15:57.066Z,9.00
2017-09-30T20:18:24.230Z,9.53
2017-09-30T20:20:51.524Z,9.73
2017-09-30T20:23:18.074Z,8.20
2017-09-30T20:25:44.545Z,9.17
2017-09-30T20:28:11.851Z,9.13
2017-09-30T20:30:38.296Z,9.80
2017-09-30T20:33:04.935Z,8.57
2017-09-30T20:35:31.444Z,9.40
2017-09-30T20:37:57.968Z,11.47
2017-09-30T20:40:24.511Z,9.50
2017-09-30T20:42:50.998Z,8.13
2017-09-30T20:45:18.222Z,9.73
2017-09-30T20:47:44.653Z,8.47
2017-09-30T20:50:11.134Z,9.63
2017-09-30T20:55:27.001Z,10.27
2017-09-30T20:57:55.341Z,8.87
2017-09-30T21:00:22.617Z,9.73
2017-09-30T21:02:49.062Z,11.07
2017-09-30T21:05:16.880Z,10.57
2017-09-30T21:07:43.326Z,7.23
2017-09-30T21:10:09.840Z,6.80
2017-09-30T21:12:36.303Z,7.37
2017-09-30T21:15:02.784Z,7.10
2017-09-30T21:17:30.024Z,8.13
2017-09-30T21:19:56.645Z,9.40
2017-09-30T21:22:23.111Z,7.33
2017-09-30T21:24:50.320Z,10.00
2017-09-30T21:27:16.771Z,5.47
2017-09-30T21:29:43.220Z,5.60
2017-09-30T21:32:09.707Z,7.67
2017-09-30T21:34:36.179Z,7.83
2017-09-30T21:37:03.397Z,6.80
2017-09-30T21:39:29.811Z,6.27
2017-09-30T21:41:56.263Z,6.20
2017-09-30T21:44:22.742Z,6.90
2017-09-30T21:46:50.558Z,6.23
2017-09-30T21:49:17.032Z,5.63
2017-09-30T21:51:43.670Z,5.67
2017-09-30T21:54:10.110Z,6.47
2017-09-30T21:56:37.392Z,7.50
2017-09-30T21:59:03.839Z,5.73
2017-09-30T22:01:30.303Z,5.57
2017-09-30T22:03:56.742Z,5.80
2017-09-30T22:06:23.194Z,5.60
2017-09-30T22:08:50.442Z,5.87
2017-09-30T22:11:17.629Z,6.27
2017-09-30T22:13:44.222Z,6.27
2017-09-30T22:16:11.429Z,4.50
2017-09-30T22:18:37.871Z,4.97
2017-09-30T22:21:04.510Z,5.53
2017-09-30T22:23:30.979Z,5.30
2017-09-30T22:25:58.175Z,5.97
2017-09-30T22:28:24.658Z,5.80
2017-09-30T22:30:51.157Z,6.77
2017-09-30T22:33:17.654Z,5.73
2017-09-30T22:35:44.225Z,5.80
2017-09-30T22:38:10.714Z,6.13
2017-09-30T22:40:37.875Z,8.00
2017-09-30T22:43:04.329Z,7.73
2017-09-30T22:45:30.769Z,6.00
2017-09-30T22:47:57.207Z,6.83
2017-09-30T22:50:23.827Z,6.60
2017-09-30T22:52:50.282Z,8.17
2017-09-30T22:55:16.735Z,7.10
2017-09-30T22:57:43.160Z,6.47
2017-09-30T23:00:09.666Z,8.20
2017-09-30T23:02:36.195Z,7.57
2017-09-30T23:05:02.645Z,7.37
2017-09-30T23:07:29.101Z,7.53
2017-09-30T23:09:56.526Z,7.50
2017-09-30T23:12:22.996Z,7.40
2017-09-30T23:14:49.442Z,7.40
2017-09-30T23:17:15.871Z,8.47
2017-09-30T23:19:42.351Z,7.37
2017-09-30T23:22:08.803Z,8.40
2017-09-30T23:24:35.206Z,7.20
2017-09-30T23:27:01.677Z,6.60
2017-09-30T23:29:28.131Z,7.47
2017-09-30T23:31:54.570Z,7.13
2017-09-30T23:34:21.940Z,9.37
2017-09-30T23:36:49.126Z,9.50
2017-09-30T23:39:15.585Z,8.37
2017-09-30T23:41:42.032Z,7.77
2017-09-30T23:44:08.495Z,7.97
2017-09-30T23:46:35.668Z,8.53
2017-09-30T23:49:02.114Z,7.80
2017-09-30T23:51:28.566Z,7.60
2017-09-30T23:53:54.984Z,9.53
2017-09-30T23:56:21.434Z,8.37
2017-09-30T23:58:47.927Z,8.30
